Time;durP1;ratioP1;P1;durP2;ratioP2;P2;SDS_P1;SDS_P2;PMS_P1;PMS_P2;Temp;Humidity;BMP_temperature;BMP_pressure;BME280_temperature;BME280_humidity;BME280_pressure;Samples;Min_cycle;Max_cycle;Signal;HPM_P1;HPM_P2
2022/09/22 00:01:39;;;;;;;9.77;4.00;;;9.20;99.90;;;;;;5049793;28;20087;-46
2022/09/22 00:04:11;;;;;;;7.38;3.03;;;9.20;99.90;;;;;;5050103;28;20120;-46
2022/09/22 00:06:46;;;;;;;7.65;3.28;;;9.30;99.90;;;;;;5050631;28;20032;-47
2022/09/22 00:09:15;;;;;;;8.25;3.70;;;9.30;99.90;;;;;;5054548;28;20409;-47
2022/09/22 00:11:43;;;;;;;6.80;3.45;;;9.40;99.90;;;;;;5054165;28;20113;-47
2022/09/22 00:14:25;;;;;;;8.02;3.15;;;9.10;99.90;;;;;;5052072;28;20041;-47
2022/09/22 00:16:55;;;;;;;6.55;2.58;;;8.90;99.90;;;;;;5053610;28;20045;-50
2022/09/22 00:19:26;;;;;;;7.32;3.10;;;9.00;99.90;;;;;;5054005;28;20452;-44
2022/09/22 00:21:52;;;;;;;6.05;2.95;;;9.10;99.90;;;;;;5053788;28;20052;-45
2022/09/22 00:24:23;;;;;;;8.43;3.13;;;9.00;99.90;;;;;;5054154;28;20075;-44
2022/09/22 00:26:50;;;;;;;8.77;3.25;;;9.00;99.90;;;;;;5053677;28;20131;-47
2022/09/22 00:29:16;;;;;;;7.03;3.00;;;9.10;99.90;;;;;;5053938;28;20029;-46
2022/09/22 00:31:43;;;;;;;5.53;2.70;;;9.10;99.90;;;;;;5053435;28;20036;-45
2022/09/22 00:34:15;;;;;;;8.82;2.90;;;9.10;99.90;;;;;;5053677;28;20033;-45
2022/09/22 00:36:40;;;;;;;6.47;2.85;;;8.90;99.90;;;;;;5053896;28;20047;-45
2022/09/22 00:39:06;;;;;;;7.80;2.83;;;9.00;99.90;;;;;;5053906;28;20037;-43
2022/09/22 00:41:35;;;;;;;7.35;3.30;;;8.90;99.90;;;;;;5053389;28;20045;-46
2022/09/22 00:44:25;;;;;;;6.32;2.95;;;9.00;99.90;;;;;;5053562;28;20033;-47
2022/09/22 00:47:00;;;;;;;6.40;3.05;;;8.80;99.90;;;;;;5042410;28;20121;-44
2022/09/22 00:49:51;;;;;;;6.55;3.13;;;8.80;99.90;;;;;;5053337;28;20041;-44
2022/09/22 00:52:35;;;;;;;6.25;2.80;;;8.90;99.90;;;;;;5053586;28;20495;-46
2022/09/22 00:55:05;;;;;;;7.15;3.03;;;8.80;99.90;;;;;;5052736;28;20131;-43
2022/09/22 00:57:34;;;;;;;6.25;3.05;;;8.70;99.90;;;;;;5052834;28;20064;-45
2022/09/22 01:00:03;;;;;;;6.03;2.85;;;8.80;99.90;;;;;;5052842;28;20036;-46
2022/09/22 01:02:28;;;;;;;7.10;3.38;;;8.80;99.90;;;;;;5052795;28;20040;-43
2022/09/22 01:04:54;;;;;;;7.07;2.92;;;8.60;99.90;;;;;;5053421;28;20036;-44
2022/09/22 01:07:24;;;;;;;7.25;3.03;;;8.70;99.90;;;;;;5052870;28;20511;-45
2022/09/22 01:09:51;;;;;;;6.47;2.65;;;8.60;99.90;;;;;;5053311;28;20106;-47
2022/09/22 01:12:18;;;;;;;10.38;2.50;;;8.60;99.90;;;;;;5053263;28;20048;-45
2022/09/22 01:15:04;;;;;;;7.25;2.88;;;8.80;99.90;;;;;;5052663;28;20049;-45
2022/09/22 01:17:41;;;;;;;5.55;2.50;;;8.60;99.90;;;;;;5053147;28;20040;-44
2022/09/22 01:20:26;;;;;;;5.72;2.58;;;8.50;99.90;;;;;;5051854;28;20053;-43
2022/09/22 01:23:10;;;;;;;5.28;2.55;;;8.50;99.90;;;;;;5051673;28;20064;-43
2022/09/22 01:26:11;;;;;;;4.18;2.33;;;8.60;99.90;;;;;;5052631;28;20072;-45
2022/09/22 01:29:09;;;;;;;6.15;2.78;;;8.50;99.90;;;;;;5011063;28;20123;-46
2022/09/22 01:32:28;;;;;;;7.03;2.80;;;8.50;99.90;;;;;;5052522;28;20040;-45
2022/09/22 01:35:15;;;;;;;5.47;2.55;;;8.50;99.90;;;;;;4960240;28;21074;-44
2022/09/22 01:37:48;;;;;;;6.38;2.40;;;8.40;99.90;;;;;;5052681;28;20126;-43
2022/09/22 01:40:30;;;;;;;7.38;2.50;;;8.30;99.90;;;;;;5052640;28;20047;-45
2022/09/22 01:43:05;;;;;;;6.20;2.50;;;8.20;99.90;;;;;;5052467;28;20052;-44
2022/09/22 01:45:34;;;;;;;9.20;3.38;;;8.10;99.90;;;;;;5050751;28;20033;-47
2022/09/22 01:48:26;;;;;;;5.82;2.72;;;8.00;99.90;;;;;;5052336;28;20039;-43
2022/09/22 01:51:03;;;;;;;6.78;2.63;;;8.10;99.90;;;;;;5051728;28;20493;-45
2022/09/22 01:53:33;;;;;;;5.80;2.80;;;8.20;99.90;;;;;;5052494;28;20037;-45
2022/09/22 01:56:04;;;;;;;6.00;2.85;;;8.10;99.90;;;;;;5052274;28;20056;-46
2022/09/22 01:58:36;;;;;;;8.80;3.30;;;8.10;99.90;;;;;;5052240;28;20036;-45
2022/09/22 02:01:09;;;;;;;6.47;3.05;;;8.10;99.90;;;;;;5051914;28;20079;-45
2022/09/22 02:03:56;;;;;;;6.10;2.65;;;8.20;99.90;;;;;;5052182;28;20040;-43
2022/09/22 02:06:31;;;;;;;5.63;3.05;;;8.00;99.90;;;;;;5051919;28;20052;-44
2022/09/22 02:09:05;;;;;;;8.32;2.90;;;8.00;99.90;;;;;;5052087;28;20041;-45
2022/09/22 02:11:32;;;;;;;5.72;3.10;;;7.90;99.90;;;;;;5052126;28;20040;-45
2022/09/22 02:13:58;;;;;;;6.13;2.70;;;7.70;99.90;;;;;;5052056;28;20029;-45
2022/09/22 02:16:26;;;;;;;5.57;2.65;;;7.70;99.90;;;;;;5051741;28;20036;-45
2022/09/22 02:19:05;;;;;;;5.45;3.30;;;7.60;99.90;;;;;;5049573;28;20194;-44
2022/09/22 02:21:31;;;;;;;6.90;3.05;;;7.80;99.90;;;;;;5051759;28;20048;-45
2022/09/22 02:23:57;;;;;;;4.47;3.00;;;7.80;99.90;;;;;;5051492;28;20039;-44
2022/09/22 02:26:27;;;;;;;7.80;3.20;;;7.70;99.90;;;;;;5051402;28;20206;-44
2022/09/22 02:28:59;;;;;;;5.55;2.90;;;7.70;99.90;;;;;;5051711;28;20514;-46
2022/09/22 02:31:28;;;;;;;6.78;3.30;;;7.50;99.90;;;;;;5050033;28;20029;-44
2022/09/22 02:33:55;;;;;;;6.32;2.92;;;7.70;99.90;;;;;;5051533;28;20469;-43
2022/09/22 02:36:34;;;;;;;7.10;3.40;;;7.80;99.90;;;;;;5051735;28;20585;-44
2022/09/22 02:39:10;;;;;;;10.85;3.45;;;7.70;99.90;;;;;;5051491;28;20033;-45
2022/09/22 02:42:20;;;;;;;9.43;3.63;;;7.70;99.90;;;;;;5051549;28;20055;-43
2022/09/22 02:45:08;;;;;;;5.93;3.50;;;7.70;99.90;;;;;;5050876;28;20531;-44
2022/09/22 02:47:49;;;;;;;6.43;3.38;;;7.80;99.90;;;;;;5051339;28;20487;-42
2022/09/22 02:50:18;;;;;;;7.00;3.63;;;7.80;99.90;;;;;;5049797;28;20054;-43
2022/09/22 02:52:44;;;;;;;6.60;3.50;;;7.50;99.90;;;;;;5050308;28;20037;-45
2022/09/22 02:55:12;;;;;;;5.38;2.90;;;7.50;99.90;;;;;;5051358;28;20044;-43
2022/09/22 02:57:37;;;;;;;6.38;2.95;;;7.40;99.90;;;;;;5050818;28;20037;-44
2022/09/22 03:00:04;;;;;;;6.13;3.10;;;7.40;99.90;;;;;;5050802;28;20037;-44
2022/09/22 03:02:30;;;;;;;5.72;2.95;;;7.40;99.90;;;;;;5051064;28;20537;-44
2022/09/22 03:04:56;;;;;;;6.30;3.28;;;7.40;99.90;;;;;;5049703;28;20128;-45
2022/09/22 03:07:22;;;;;;;5.20;3.20;;;7.40;99.90;;;;;;5050809;28;20045;-44
2022/09/22 03:09:48;;;;;;;6.05;3.33;;;7.50;99.90;;;;;;5051055;28;20495;-43
2022/09/22 03:12:13;;;;;;;7.15;3.60;;;7.40;99.90;;;;;;5051057;28;20037;-48
2022/09/22 03:14:39;;;;;;;5.50;3.17;;;7.30;99.90;;;;;;5042078;28;20086;-45
2022/09/22 03:17:05;;;;;;;5.78;3.22;;;7.30;99.90;;;;;;5050978;28;20053;-45
2022/09/22 03:19:30;;;;;;;6.55;3.20;;;7.20;99.90;;;;;;5043922;28;20680;-44
2022/09/22 03:21:56;;;;;;;5.93;3.42;;;7.20;99.90;;;;;;5050689;28;20107;-43
2022/09/22 03:24:22;;;;;;;5.63;3.15;;;7.30;99.90;;;;;;5050871;28;20041;-46
2022/09/22 03:26:47;;;;;;;5.65;3.55;;;7.30;99.90;;;;;;5050812;28;20447;-47
2022/09/22 03:29:13;;;;;;;9.00;3.58;;;7.30;99.90;;;;;;5050838;28;20099;-46
2022/09/22 03:31:39;;;;;;;7.68;3.53;;;7.20;99.90;;;;;;5050323;28;20044;-43
2022/09/22 03:34:04;;;;;;;7.53;3.65;;;7.10;99.90;;;;;;5050451;28;20033;-43
2022/09/22 03:36:30;;;;;;;6.00;3.60;;;7.20;99.90;;;;;;5050668;28;20037;-43
2022/09/22 03:38:56;;;;;;;6.70;3.60;;;7.20;99.90;;;;;;5050324;28;20041;-43
2022/09/22 03:41:22;;;;;;;6.00;3.45;;;7.30;99.90;;;;;;5050403;28;20049;-45
2022/09/22 03:43:47;;;;;;;6.70;3.42;;;7.10;99.90;;;;;;5054539;28;20072;-44
2022/09/22 03:46:13;;;;;;;5.25;3.08;;;7.10;99.90;;;;;;5054811;28;20094;-44
2022/09/22 03:48:39;;;;;;;7.80;3.63;;;7.10;99.90;;;;;;5045302;28;20062;-45
2022/09/22 03:51:05;;;;;;;8.35;4.07;;;7.10;99.90;;;;;;5054744;28;20116;-44
2022/09/22 03:53:31;;;;;;;8.05;3.67;;;7.10;99.90;;;;;;5054661;28;20445;-45
2022/09/22 03:56:08;;;;;;;8.13;3.70;;;7.20;99.90;;;;;;5054175;28;20076;-44
2022/09/22 03:58:35;;;;;;;6.35;4.18;;;7.10;99.90;;;;;;5046998;28;20033;-44
2022/09/22 04:01:01;;;;;;;6.07;3.33;;;7.00;99.90;;;;;;5053952;28;20041;-44
2022/09/22 04:03:27;;;;;;;6.88;3.60;;;7.00;99.90;;;;;;5054358;28;20044;-43
2022/09/22 04:05:53;;;;;;;8.57;3.63;;;7.00;99.90;;;;;;5054129;28;20120;-48
2022/09/22 04:08:19;;;;;;;7.00;3.42;;;7.00;99.90;;;;;;5054205;28;20148;-43
2022/09/22 04:10:45;;;;;;;7.72;3.85;;;6.80;99.90;;;;;;5053874;28;20029;-43
2022/09/22 04:13:12;;;;;;;9.32;4.20;;;6.90;99.90;;;;;;5054251;28;20051;-45
2022/09/22 04:15:38;;;;;;;6.13;3.53;;;6.90;99.90;;;;;;5054302;28;20066;-43
2022/09/22 04:18:03;;;;;;;6.78;3.70;;;6.90;99.90;;;;;;5054351;28;20415;-43
2022/09/22 04:20:29;;;;;;;8.50;3.83;;;7.00;99.90;;;;;;5053752;28;20404;-44
2022/09/22 04:22:55;;;;;;;7.72;3.85;;;6.90;99.90;;;;;;5053645;28;20084;-43
2022/09/22 04:25:21;;;;;;;7.88;4.18;;;6.90;99.90;;;;;;5053770;28;20029;-45
2022/09/22 04:27:46;;;;;;;8.38;4.40;;;6.90;99.90;;;;;;5053982;28;20276;-44
2022/09/22 04:30:12;;;;;;;8.15;3.78;;;6.80;99.90;;;;;;5050761;28;20068;-45
2022/09/22 04:32:38;;;;;;;7.38;3.83;;;6.70;99.90;;;;;;5053736;28;20072;-45
2022/09/22 04:35:04;;;;;;;9.93;4.38;;;6.90;99.90;;;;;;5053799;28;20037;-44
2022/09/22 04:37:30;;;;;;;9.35;4.40;;;6.90;99.90;;;;;;5052960;28;20106;-42
2022/09/22 04:39:58;;;;;;;7.70;4.30;;;6.70;99.90;;;;;;5053605;28;20037;-46
2022/09/22 04:42:24;;;;;;;10.40;4.55;;;6.70;99.90;;;;;;5053725;28;20045;-45
2022/09/22 04:44:50;;;;;;;7.50;4.30;;;6.80;99.90;;;;;;5053804;28;20537;-43
2022/09/22 04:47:16;;;;;;;9.63;4.70;;;6.60;99.90;;;;;;5053593;28;20111;-45
2022/09/22 04:49:42;;;;;;;8.32;4.15;;;6.70;99.90;;;;;;5053616;28;20033;-43
2022/09/22 04:52:08;;;;;;;7.57;4.13;;;6.60;99.90;;;;;;5053589;28;20040;-43
2022/09/22 04:54:34;;;;;;;8.25;4.70;;;6.60;99.90;;;;;;5052311;28;20056;-43
2022/09/22 04:57:00;;;;;;;10.20;5.68;;;6.60;99.90;;;;;;5053416;28;20538;-43
2022/09/22 04:59:26;;;;;;;6.82;4.20;;;6.50;99.90;;;;;;5053376;28;20037;-44
2022/09/22 05:01:51;;;;;;;9.27;5.32;;;6.40;99.90;;;;;;5033967;28;20051;-44
2022/09/22 05:04:17;;;;;;;8.00;4.95;;;6.30;99.90;;;;;;5053282;28;20058;-44
2022/09/22 05:06:43;;;;;;;8.85;4.82;;;6.20;99.90;;;;;;5053296;28;20120;-44
2022/09/22 05:09:09;;;;;;;9.43;5.25;;;6.40;99.90;;;;;;5053124;28;20033;-45
2022/09/22 05:11:34;;;;;;;8.65;4.63;;;6.40;99.90;;;;;;5053383;28;20043;-44
2022/09/22 05:14:01;;;;;;;9.70;5.15;;;6.20;99.90;;;;;;5053108;28;20029;-46
2022/09/22 05:16:26;;;;;;;13.40;5.28;;;6.20;99.90;;;;;;5053052;28;20040;-44
2022/09/22 05:18:52;;;;;;;8.52;4.80;;;6.40;99.90;;;;;;5052761;28;20389;-44
2022/09/22 05:21:18;;;;;;;7.53;4.15;;;6.20;99.90;;;;;;5053075;28;20037;-44
2022/09/22 05:23:44;;;;;;;8.75;4.78;;;6.20;99.90;;;;;;5052904;28;20052;-45
2022/09/22 05:26:10;;;;;;;9.50;4.95;;;6.10;99.90;;;;;;5051580;28;20392;-45
2022/09/22 05:28:36;;;;;;;7.90;4.95;;;6.30;99.90;;;;;;5052892;28;20039;-46
2022/09/22 05:31:02;;;;;;;7.97;4.93;;;6.40;99.90;;;;;;5052326;28;20083;-47
2022/09/22 05:33:28;;;;;;;9.05;4.80;;;6.20;99.90;;;;;;5052695;28;20037;-43
2022/09/22 05:35:53;;;;;;;8.65;5.03;;;6.30;99.90;;;;;;5052747;28;20041;-42
2022/09/22 05:38:19;;;;;;;10.30;5.25;;;6.30;99.90;;;;;;5052509;28;20036;-44
2022/09/22 05:40:48;;;;;;;10.93;5.40;;;6.30;99.90;;;;;;5052622;28;20284;-44
2022/09/22 05:43:14;;;;;;;8.98;5.15;;;6.30;99.90;;;;;;5052236;28;20044;-45
2022/09/22 05:45:40;;;;;;;9.43;4.80;;;6.40;99.90;;;;;;5052666;28;20033;-44
2022/09/22 05:48:05;;;;;;;8.60;5.95;;;6.30;99.90;;;;;;5052253;28;20037;-44
2022/09/22 05:50:31;;;;;;;12.32;5.57;;;6.40;99.90;;;;;;5052483;28;20037;-44
2022/09/22 05:53:09;;;;;;;8.57;5.47;;;6.50;99.90;;;;;;5052006;28;20040;-44
2022/09/22 05:55:36;;;;;;;11.38;5.63;;;6.50;99.90;;;;;;5052502;28;20116;-45
2022/09/22 05:58:02;;;;;;;10.18;6.13;;;6.40;99.90;;;;;;5052457;28;20088;-43
2022/09/22 06:00:28;;;;;;;9.30;6.53;;;6.50;99.90;;;;;;5051927;28;20116;-42
2022/09/22 06:02:54;;;;;;;11.90;6.80;;;6.50;99.90;;;;;;5050477;28;20037;-44
2022/09/22 06:05:19;;;;;;;10.50;6.30;;;6.50;99.90;;;;;;5051978;28;20381;-43
2022/09/22 06:07:46;;;;;;;10.40;6.15;;;6.70;99.90;;;;;;5052169;28;20561;-42
2022/09/22 06:10:12;;;;;;;9.70;6.28;;;6.50;99.90;;;;;;5051887;28;20123;-46
2022/09/22 06:12:38;;;;;;;9.48;6.65;;;6.70;99.90;;;;;;5052140;28;20112;-44
2022/09/22 06:15:05;;;;;;;11.50;6.68;;;6.70;99.90;;;;;;5051640;28;20040;-43
2022/09/22 06:17:31;;;;;;;10.27;6.35;;;6.60;99.90;;;;;;5051998;28;20094;-45
2022/09/22 06:19:59;;;;;;;10.82;6.70;;;6.70;99.90;;;;;;5049350;28;20061;-42
2022/09/22 06:22:25;;;;;;;9.52;6.70;;;6.70;99.90;;;;;;5050609;28;20056;-47
2022/09/22 06:24:51;;;;;;;9.63;6.55;;;6.70;99.90;;;;;;5051824;28;20124;-48
2022/09/22 06:27:17;;;;;;;12.18;7.05;;;6.70;99.90;;;;;;5051876;28;20120;-43
2022/09/22 06:29:43;;;;;;;11.85;7.47;;;6.90;99.90;;;;;;5051916;28;20041;-43
2022/09/22 06:32:09;;;;;;;12.90;7.72;;;6.90;99.90;;;;;;5051153;28;20041;-43
2022/09/22 06:34:36;;;;;;;15.55;7.88;;;7.10;99.90;;;;;;5034980;28;20037;-45
2022/09/22 06:37:08;;;;;;;13.10;8.27;;;7.00;99.90;;;;;;5051478;28;20468;-42
2022/09/22 06:39:36;;;;;;;14.52;7.68;;;7.30;99.90;;;;;;5048088;28;20041;-43
2022/09/22 06:42:04;;;;;;;13.73;7.22;;;7.30;99.90;;;;;;5041881;28;20041;-44
2022/09/22 06:44:31;;;;;;;15.40;8.50;;;7.30;99.90;;;;;;5050677;28;20040;-46
2022/09/22 06:46:56;;;;;;;13.65;8.77;;;7.30;99.90;;;;;;5050457;28;20384;-45
2022/09/22 06:49:22;;;;;;;15.80;9.20;;;7.50;99.90;;;;;;5050591;28;20033;-43
2022/09/22 06:51:48;;;;;;;12.75;8.85;;;7.40;99.90;;;;;;5047985;28;20408;-45
2022/09/22 06:54:14;;;;;;;13.70;8.40;;;7.60;99.90;;;;;;5031110;28;20518;-44
2022/09/22 06:56:42;;;;;;;13.65;9.68;;;7.70;99.90;;;;;;5031338;28;20088;-42
2022/09/22 06:59:12;;;;;;;13.77;9.75;;;7.80;99.90;;;;;;5048556;28;20048;-44
2022/09/22 07:01:40;;;;;;;15.57;10.18;;;7.90;99.90;;;;;;5049438;28;20404;-44
2022/09/22 07:04:06;;;;;;;14.77;9.73;;;7.80;99.90;;;;;;5049374;28;20047;-45
2022/09/22 07:06:36;;;;;;;13.02;9.15;;;7.90;99.90;;;;;;5046503;28;20168;-43
2022/09/22 07:09:02;;;;;;;17.42;10.50;;;7.90;99.90;;;;;;5048610;28;20041;-43
2022/09/22 07:11:28;;;;;;;16.35;10.05;;;8.10;99.90;;;;;;5048778;28;20036;-44
2022/09/22 07:13:54;;;;;;;15.00;10.43;;;8.20;99.90;;;;;;5049005;28;20177;-44
2022/09/22 07:16:24;;;;;;;13.43;10.50;;;8.20;99.90;;;;;;5048476;28;20053;-46
2022/09/22 07:18:55;;;;;;;15.25;10.70;;;8.40;99.90;;;;;;5046587;28;20514;-45
2022/09/22 07:21:31;;;;;;;14.52;10.85;;;8.50;99.90;;;;;;5048688;28;20037;-44
2022/09/22 07:23:57;;;;;;;17.35;11.80;;;8.60;99.90;;;;;;5049439;28;20121;-44
2022/09/22 07:26:31;;;;;;;18.13;11.10;;;8.60;99.90;;;;;;5048904;28;20047;-47
2022/09/22 07:29:02;;;;;;;19.30;11.02;;;8.70;99.90;;;;;;5032961;28;20036;-45
2022/09/22 07:31:30;;;;;;;15.35;11.40;;;8.80;99.90;;;;;;5048442;28;20033;-43
2022/09/22 07:33:59;;;;;;;16.10;10.80;;;8.90;99.90;;;;;;5048080;28;20094;-44
2022/09/22 07:36:26;;;;;;;15.07;10.93;;;8.80;99.90;;;;;;5048839;28;20391;-44
2022/09/22 07:38:54;;;;;;;17.98;11.52;;;9.00;99.90;;;;;;5048166;28;20068;-44
2022/09/22 07:41:30;;;;;;;16.38;11.48;;;9.10;99.90;;;;;;5048898;28;20435;-46
2022/09/22 07:45:11;;;;;;;18.13;11.75;;;9.10;99.90;;;;;;5047815;28;20392;-46
2022/09/22 07:46:47;;;;;;;17.13;11.95;;;9.30;99.90;;;;;;5046486;28;20095;-44
2022/09/22 07:49:21;;;;;;;13.63;11.70;;;9.50;99.90;;;;;;5047357;28;20037;-45
2022/09/22 07:51:48;;;;;;;17.02;11.93;;;9.30;99.90;;;;;;5029058;28;20068;-48
2022/09/22 07:54:14;;;;;;;15.90;11.52;;;9.70;99.90;;;;;;5046963;28;20041;-44
2022/09/22 07:56:42;;;;;;;13.40;11.77;;;9.60;99.90;;;;;;5048527;28;20064;-43
2022/09/22 07:59:11;;;;;;;16.55;12.23;;;9.70;99.90;;;;;;5048204;28;20043;-45
2022/09/22 08:01:40;;;;;;;17.42;12.15;;;9.80;99.90;;;;;;5045702;28;20057;-43
2022/09/22 08:04:06;;;;;;;18.05;11.70;;;10.00;99.90;;;;;;5047409;28;20044;-43
2022/09/22 08:06:33;;;;;;;15.82;10.65;;;10.30;99.90;;;;;;5029086;28;20036;-45
2022/09/22 08:09:05;;;;;;;14.35;9.75;;;10.30;99.90;;;;;;5045604;28;20051;-45
2022/09/22 08:11:31;;;;;;;15.43;9.13;;;10.50;99.90;;;;;;5043746;28;20040;-43
2022/09/22 08:14:02;;;;;;;14.75;8.75;;;10.60;99.90;;;;;;5040820;28;20082;-43
2022/09/22 08:16:33;;;;;;;12.63;8.40;;;10.70;99.90;;;;;;5037108;28;20040;-44
2022/09/22 08:19:02;;;;;;;15.70;8.98;;;10.70;99.90;;;;;;5044035;28;20140;-44
2022/09/22 08:21:34;;;;;;;12.52;8.38;;;10.80;99.90;;;;;;5043937;28;20039;-44
2022/09/22 08:24:00;;;;;;;13.00;8.35;;;10.80;99.90;;;;;;5041661;28;20119;-45
2022/09/22 08:26:26;;;;;;;14.40;7.78;;;11.10;99.90;;;;;;5029025;28;20485;-43
2022/09/22 08:28:52;;;;;;;12.20;8.32;;;11.10;99.90;;;;;;5041456;28;20087;-46
2022/09/22 08:31:19;;;;;;;10.85;8.13;;;11.30;99.90;;;;;;5049696;28;20131;-44
2022/09/22 08:33:46;;;;;;;11.85;8.02;;;11.40;99.90;;;;;;5047300;28;20045;-43
2022/09/22 08:36:12;;;;;;;10.75;7.95;;;11.60;99.90;;;;;;5051499;28;20041;-44
2022/09/22 08:38:38;;;;;;;9.43;7.50;;;11.50;99.90;;;;;;5050178;28;20037;-44
2022/09/22 08:41:23;;;;;;;10.05;7.75;;;11.80;99.90;;;;;;5049682;28;20067;-45
2022/09/22 08:43:54;;;;;;;10.95;7.43;;;12.00;99.90;;;;;;5046792;28;20036;-47
2022/09/22 08:46:25;;;;;;;12.23;7.70;;;12.10;99.90;;;;;;5048994;28;20276;-47
2022/09/22 08:51:50;;;;;;;11.00;6.88;;;12.40;99.90;;;;;;5044623;28;20111;-45
2022/09/22 08:54:17;;;;;;;10.48;7.22;;;12.60;99.90;;;;;;5043411;28;20068;-45
2022/09/22 08:56:53;;;;;;;11.38;7.30;;;12.80;99.90;;;;;;5044522;28;20036;-44
2022/09/22 08:59:35;;;;;;;10.82;7.22;;;12.90;99.90;;;;;;5048553;28;20043;-44
2022/09/22 09:02:44;;;;;;;13.15;7.28;;;13.10;99.90;;;;;;5049406;28;20509;-44
2022/09/22 09:05:53;;;;;;;8.90;6.50;;;13.40;99.90;;;;;;5048504;28;20080;-45
2022/09/22 09:08:57;;;;;;;10.30;6.00;;;13.50;99.90;;;;;;5030787;28;20080;-46
2022/09/22 09:11:48;;;;;;;9.05;6.07;;;13.80;99.90;;;;;;5043521;28;20045;-48
2022/09/22 09:14:34;;;;;;;7.90;4.93;;;14.20;99.90;;;;;;5047326;28;20126;-47
2022/09/22 09:17:12;;;;;;;7.57;4.72;;;14.30;99.90;;;;;;5047289;28;20037;-46
2022/09/22 09:19:52;;;;;;;12.20;5.03;;;14.40;99.90;;;;;;5050263;28;20449;-44
2022/09/22 09:22:24;;;;;;;7.03;4.35;;;14.50;99.90;;;;;;5050515;28;20049;-45
2022/09/22 09:25:22;;;;;;;7.28;4.47;;;14.60;99.90;;;;;;5050476;28;20050;-46
2022/09/22 09:28:03;;;;;;;9.38;4.10;;;14.60;99.90;;;;;;5020672;28;20492;-45
2022/09/22 09:30:37;;;;;;;7.65;3.72;;;14.70;99.90;;;;;;5050277;28;20048;-46
2022/09/22 09:33:24;;;;;;;6.13;3.65;;;14.90;99.90;;;;;;5049727;28;20040;-44
2022/09/22 09:35:52;;;;;;;6.70;3.17;;;15.00;99.90;;;;;;5050108;28;20052;-43
2022/09/22 09:38:38;;;;;;;6.05;2.97;;;15.10;99.90;;;;;;5050039;28;20086;-44
2022/09/22 09:41:16;;;;;;;6.45;3.40;;;15.20;99.90;;;;;;5050142;28;20037;-45
2022/09/22 09:43:44;;;;;;;6.35;2.83;;;15.30;99.90;;;;;;5050656;28;20103;-46
2022/09/22 09:46:23;;;;;;;6.40;3.25;;;15.40;99.90;;;;;;5050874;28;20041;-44
2022/09/22 09:49:08;;;;;;;8.70;3.40;;;15.30;99.90;;;;;;5050823;28;20076;-44
2022/09/22 09:51:37;;;;;;;6.22;3.20;;;15.40;99.90;;;;;;5051293;28;20067;-43
2022/09/22 09:54:06;;;;;;;7.63;3.33;;;15.60;99.90;;;;;;5050514;28;20553;-44
2022/09/22 09:56:35;;;;;;;7.88;3.25;;;15.50;99.90;;;;;;5050173;28;20048;-45
2022/09/22 10:01:53;;;;;;;5.97;3.20;;;15.80;99.90;;;;;;5050285;28;20094;-45
2022/09/22 10:04:32;;;;;;;7.20;3.47;;;15.80;99.90;;;;;;5052286;28;20989;-45
2022/09/22 10:07:11;;;;;;;8.55;3.40;;;15.90;99.90;;;;;;5051211;28;20033;-45
2022/09/22 10:09:38;;;;;;;7.13;3.63;;;15.90;99.90;;;;;;5052162;28;20067;-44
2022/09/22 10:12:04;;;;;;;8.48;3.38;;;16.00;99.90;;;;;;5052047;28;20045;-46
2022/09/22 10:14:33;;;;;;;7.63;3.60;;;16.20;99.90;;;;;;5051725;28;20051;-45
2022/09/22 10:16:59;;;;;;;6.90;3.30;;;16.10;99.90;;;;;;5051663;28;20048;-45
2022/09/22 10:19:30;;;;;;;7.38;3.03;;;16.20;99.90;;;;;;5051719;28;20049;-46
2022/09/22 10:22:21;;;;;;;5.63;2.95;;;16.20;99.90;;;;;;5050065;28;20130;-45
2022/09/22 10:24:56;;;;;;;5.57;2.47;;;16.30;99.90;;;;;;5032904;28;20103;-44
2022/09/22 10:27:24;;;;;;;5.30;2.95;;;16.40;99.90;;;;;;5051911;28;20488;-45
2022/09/22 10:30:09;;;;;;;7.20;2.65;;;16.50;99.90;;;;;;5051825;28;20388;-42
2022/09/22 10:32:36;;;;;;;6.68;2.95;;;16.60;99.90;;;;;;5049490;28;20377;-46
2022/09/22 10:35:28;;;;;;;4.80;2.58;;;16.60;99.90;;;;;;5050941;28;20047;-45
2022/09/22 10:38:06;;;;;;;7.18;3.10;;;16.70;99.90;;;;;;5051355;28;20040;-46
2022/09/22 10:40:34;;;;;;;6.88;2.70;;;16.80;99.90;;;;;;5048818;28;20045;-44
2022/09/22 10:43:03;;;;;;;4.65;2.53;;;16.90;99.90;;;;;;5048668;28;20041;-44
2022/09/22 10:45:46;;;;;;;4.82;2.25;;;17.10;99.90;;;;;;5047543;28;20143;-44
2022/09/22 10:48:32;;;;;;;5.25;2.17;;;17.30;99.90;;;;;;5044728;28;20033;-45
2022/09/22 10:51:11;;;;;;;6.45;2.15;;;17.40;99.90;;;;;;5042234;28;20500;-45
2022/09/22 10:53:45;;;;;;;6.18;2.15;;;17.50;99.90;;;;;;5040876;28;20043;-45
2022/09/22 10:56:14;;;;;;;6.50;2.40;;;17.60;99.90;;;;;;5054918;28;20611;-45
2022/09/22 10:59:01;;;;;;;5.47;2.05;;;17.60;99.90;;;;;;5039958;28;20044;-47
2022/09/22 11:01:32;;;;;;;4.88;1.80;;;17.70;99.90;;;;;;5040442;28;20064;-46
2022/09/22 11:04:04;;;;;;;6.47;2.05;;;17.80;99.90;;;;;;5041707;28;20491;-45
2022/09/22 11:12:59;;;;;;;5.70;1.63;;;17.80;98.10;;;;;;5041588;28;19916;-47
2022/09/22 11:15:36;;;;;;;6.50;2.22;;;17.90;98.70;;;;;;5040363;28;20053;-44
2022/09/22 11:18:37;;;;;;;6.70;2.70;;;18.10;98.40;;;;;;5045043;28;20075;-45
2022/09/22 11:21:03;;;;;;;4.75;2.25;;;18.10;96.60;;;;;;5044848;28;20485;-45
2022/09/22 11:23:42;;;;;;;5.22;2.00;;;18.20;98.40;;;;;;5042425;28;20044;-41
2022/09/22 11:26:29;;;;;;;5.20;2.25;;;18.40;97.70;;;;;;5039927;28;20127;-46
2022/09/22 11:29:20;;;;;;;6.07;2.45;;;18.50;99.00;;;;;;5034265;28;20614;-41
2022/09/22 11:32:10;;;;;;;6.13;2.58;;;18.60;97.10;;;;;;5036278;28;20028;-43
2022/09/22 11:34:53;;;;;;;5.35;2.80;;;18.80;97.90;;;;;;5043832;28;20045;-44
2022/09/22 11:37:29;;;;;;;7.43;3.03;;;18.90;96.50;;;;;;5043120;28;20041;-49
2022/09/22 11:40:19;;;;;;;6.30;2.40;;;19.10;97.20;;;;;;5026254;28;20170;-47
2022/09/22 11:43:03;;;;;;;6.57;2.58;;;19.40;96.70;;;;;;5048543;28;20514;-45
2022/09/22 11:46:09;;;;;;;6.32;2.33;;;19.40;95.70;;;;;;5048245;28;20268;-45
2022/09/22 11:48:53;;;;;;;5.75;2.35;;;19.10;95.90;;;;;;5038788;28;20149;-44
2022/09/22 11:51:29;;;;;;;8.27;2.65;;;19.40;97.10;;;;;;5050593;28;20448;-45
2022/09/22 11:54:01;;;;;;;6.22;2.40;;;19.40;95.40;;;;;;5050754;28;20495;-45
2022/09/22 11:56:54;;;;;;;5.50;2.47;;;19.70;95.50;;;;;;5050256;28;20037;-44
2022/09/22 11:59:38;;;;;;;7.05;2.42;;;19.90;94.90;;;;;;5050514;28;20392;-46
2022/09/22 12:02:24;;;;;;;5.07;2.53;;;19.50;97.50;;;;;;5047853;28;20060;-44
2022/09/22 12:05:00;;;;;;;4.35;1.92;;;20.10;97.50;;;;;;5054396;28;20048;-44
2022/09/22 12:07:32;;;;;;;6.40;1.80;;;20.20;94.20;;;;;;5054574;28;20041;-42
2022/09/22 12:10:12;;;;;;;6.60;2.25;;;20.40;96.00;;;;;;5054559;28;20033;-43
2022/09/22 12:12:42;;;;;;;7.45;2.40;;;20.70;94.70;;;;;;5054563;28;20049;-47
2022/09/22 12:15:32;;;;;;;7.10;2.33;;;20.80;95.30;;;;;;5053562;28;20472;-44
2022/09/22 12:18:18;;;;;;;7.20;1.70;;;20.80;94.10;;;;;;5054016;28;20041;-44
2022/09/22 12:21:07;;;;;;;6.75;2.15;;;20.60;94.20;;;;;;5053857;28;20092;-45
2022/09/22 12:23:41;;;;;;;5.95;1.90;;;20.10;93.50;;;;;;5054106;28;20045;-44
2022/09/22 12:26:13;;;;;;;5.90;2.15;;;19.70;94.70;;;;;;5053834;28;20112;-45
2022/09/22 12:28:44;;;;;;;5.47;2.30;;;19.60;94.30;;;;;;5054124;28;20612;-44
2022/09/22 12:31:16;;;;;;;5.70;2.08;;;19.90;95.20;;;;;;5053347;28;20072;-43
2022/09/22 12:33:46;;;;;;;8.15;1.95;;;20.30;93.20;;;;;;5053910;28;20048;-44
2022/09/22 12:36:13;;;;;;;4.75;1.88;;;20.60;94.70;;;;;;5053986;28;20049;-43
2022/09/22 12:38:39;;;;;;;5.22;1.75;;;21.00;94.20;;;;;;5053887;28;20051;-44
2022/09/22 12:41:05;;;;;;;4.63;1.90;;;21.20;93.10;;;;;;5053976;28;20037;-44
2022/09/22 12:43:34;;;;;;;5.60;2.00;;;21.20;92.50;;;;;;5053841;28;20047;-44
2022/09/22 12:46:04;;;;;;;4.65;1.95;;;21.10;93.60;;;;;;5053341;28;20061;-43
2022/09/22 12:48:36;;;;;;;5.47;1.88;;;21.00;92.20;;;;;;5050738;28;20051;-44
2022/09/22 12:51:34;;;;;;;3.53;1.40;;;21.20;92.00;;;;;;5053698;28;20045;-45
2022/09/22 12:54:21;;;;;;;5.97;1.95;;;21.40;92.10;;;;;;5008390;28;20075;-44
2022/09/22 12:57:08;;;;;;;6.18;1.75;;;21.30;91.70;;;;;;5052996;28;20091;-43
2022/09/22 12:59:36;;;;;;;6.38;1.90;;;21.20;91.10;;;;;;5053476;28;20404;-44
2022/09/22 13:02:30;;;;;;;5.30;2.08;;;21.40;91.70;;;;;;5053139;28;20041;-43
2022/09/22 13:04:58;;;;;;;6.55;1.60;;;21.40;92.30;;;;;;5050293;28;20047;-45
2022/09/22 13:07:42;;;;;;;5.05;1.67;;;21.50;91.40;;;;;;5053490;28;20040;-43
2022/09/22 13:10:22;;;;;;;6.18;1.88;;;21.70;92.00;;;;;;5053277;28;20055;-45
2022/09/22 13:13:20;;;;;;;5.55;2.30;;;22.10;90.30;;;;;;5053397;28;20090;-44
2022/09/22 13:15:48;;;;;;;5.90;1.73;;;22.10;91.90;;;;;;5048951;28;20084;-47
2022/09/22 13:18:39;;;;;;;6.07;1.75;;;21.90;92.00;;;;;;5051000;28;20087;-44
2022/09/22 13:21:10;;;;;;;4.50;1.52;;;21.60;92.20;;;;;;5053192;28;20478;-47
2022/09/22 13:23:37;;;;;;;5.38;1.60;;;22.00;92.10;;;;;;5052683;28;20148;-47
2022/09/22 13:26:10;;;;;;;3.88;1.50;;;22.20;92.00;;;;;;5052996;28;20090;-45
2022/09/22 13:28:36;;;;;;;6.65;1.60;;;22.30;91.80;;;;;;5052694;28;20040;-45
2022/09/22 13:31:23;;;;;;;5.20;1.75;;;22.40;91.50;;;;;;5052547;28;20116;-46